createdAt,value
2023-04-14T00:00:20.085Z,2.97
2023-04-14T00:01:22.655Z,2.60
2023-04-14T00:02:25.159Z,2.50
2023-04-14T00:03:27.968Z,2.40
2023-04-14T00:04:30.729Z,2.92
2023-04-14T00:05:34.718Z,2.65
2023-04-14T00:06:37.174Z,2.25
2023-04-14T00:07:39.531Z,2.88
2023-04-14T00:08:41.781Z,2.70
2023-04-14T00:09:44.416Z,2.13
2023-04-14T00:10:46.720Z,2.70
2023-04-14T00:11:50.657Z,2.80
2023-04-14T00:12:53.757Z,2.00
2023-04-14T00:13:57.431Z,2.40
2023-04-14T00:14:59.725Z,2.58
2023-04-14T00:16:02.349Z,2.53
2023-04-14T00:17:04.661Z,2.10
2023-04-14T00:18:07.020Z,2.17
2023-04-14T00:19:09.385Z,2.70
2023-04-14T00:20:11.817Z,2.10
2023-04-14T00:21:14.031Z,2.40
2023-04-14T00:22:16.337Z,2.50
2023-04-14T00:23:18.697Z,2.40
2023-04-14T00:24:20.996Z,2.60
2023-04-14T00:25:23.215Z,2.28
2023-04-14T00:26:25.606Z,2.08
2023-04-14T00:27:29.470Z,2.05
2023-04-14T00:28:31.700Z,2.08
2023-04-14T00:29:34.476Z,2.20
2023-04-14T00:30:36.777Z,2.22
2023-04-14T00:31:39.116Z,2.38
2023-04-14T00:32:41.469Z,2.60
2023-04-14T00:33:43.733Z,2.85
2023-04-14T00:34:46.036Z,2.50
2023-04-14T00:35:48.338Z,2.20
2023-04-14T00:36:50.736Z,2.42
2023-04-14T00:37:53.183Z,2.90
2023-04-14T00:38:55.454Z,3.03
2023-04-14T00:39:57.766Z,3.53
2023-04-14T00:41:00.048Z,2.40
2023-04-14T00:42:03.057Z,3.35
2023-04-14T00:43:05.410Z,3.80
2023-04-14T00:44:07.628Z,3.50
2023-04-14T00:45:10.426Z,3.55
2023-04-14T00:46:17.275Z,3.70
2023-04-14T00:47:22.976Z,3.95
2023-04-14T00:48:25.637Z,4.05
2023-04-14T00:49:28.711Z,3.83
2023-04-14T00:50:33.360Z,3.75
2023-04-14T00:51:36.992Z,3.00
2023-04-14T00:52:41.423Z,3.60
2023-04-14T00:53:43.753Z,3.40
2023-04-14T00:54:46.030Z,3.92
2023-04-14T00:55:48.735Z,3.50
2023-04-14T00:56:53.882Z,3.58
2023-04-14T00:57:56.527Z,3.30
2023-04-14T00:59:01.587Z,4.05
2023-04-14T01:00:05.422Z,3.30
2023-04-14T01:01:08.233Z,3.00
2023-04-14T01:02:11.701Z,3.78
2023-04-14T01:03:14.292Z,3.75
2023-04-14T01:04:17.606Z,3.42
2023-04-14T01:05:20.394Z,2.90
2023-04-14T01:06:22.732Z,2.55
2023-04-14T01:07:27.103Z,3.00
2023-04-14T01:08:29.591Z,3.63
2023-04-14T01:09:32.063Z,3.40
2023-04-14T01:10:41.142Z,3.63
2023-04-14T01:12:21.288Z,3.53
2023-04-14T01:13:44.710Z,3.00
2023-04-14T01:15:08.796Z,3.70
2023-04-14T01:16:24.297Z,3.95
2023-04-14T01:17:41.158Z,3.67
2023-04-14T01:19:13.923Z,3.60
2023-04-14T01:20:41.903Z,3.00
2023-04-14T01:21:49.827Z,3.45
2023-04-14T01:23:06.333Z,3.33
2023-04-14T01:24:38.691Z,2.80
2023-04-14T01:25:58.556Z,3.40
2023-04-14T01:27:21.402Z,3.25
2023-04-14T01:28:51.016Z,5.03
2023-04-14T01:30:30.908Z,3.28
2023-04-14T01:31:41.244Z,2.70
2023-04-14T01:32:47.535Z,3.00
2023-04-14T01:34:03.902Z,2.90
2023-04-14T01:35:13.402Z,2.65
2023-04-14T01:36:28.539Z,2.78
2023-04-14T01:37:34.386Z,3.05
2023-04-14T01:38:40.051Z,2.83
2023-04-14T01:39:48.284Z,2.88
2023-04-14T01:40:52.627Z,2.63
2023-04-14T01:41:58.392Z,2.50
2023-04-14T01:43:04.349Z,2.90
2023-04-14T01:44:08.516Z,3.28
2023-04-14T01:45:16.631Z,2.60
2023-04-14T01:46:21.488Z,2.92
2023-04-14T01:47:26.354Z,2.95
2023-04-14T01:48:29.374Z,3.25
2023-04-14T01:49:35.343Z,2.97
2023-04-14T01:50:42.113Z,3.40
2023-04-14T01:51:45.897Z,3.53
2023-04-14T01:52:54.201Z,2.85
2023-04-14T01:53:58.962Z,2.75
2023-04-14T01:55:06.670Z,3.20
2023-04-14T01:56:11.294Z,2.92
2023-04-14T01:57:15.944Z,2.83
2023-04-14T01:58:19.550Z,2.72
2023-04-14T01:59:24.669Z,2.88
2023-04-14T02:00:27.658Z,2.85
2023-04-14T02:01:32.469Z,2.80
2023-04-14T02:02:35.748Z,3.75
2023-04-14T02:03:39.703Z,2.90
2023-04-14T02:04:43.382Z,2.85
2023-04-14T02:05:47.409Z,2.60
2023-04-14T02:06:51.520Z,2.80
2023-04-14T02:07:58.098Z,2.95
2023-04-14T02:09:05.786Z,2.75
2023-04-14T02:10:13.232Z,3.75
2023-04-14T02:11:19.322Z,2.95
2023-04-14T02:12:24.853Z,3.03
2023-04-14T02:13:28.709Z,2.58
2023-04-14T02:14:32.382Z,2.58
2023-04-14T02:15:35.463Z,2.35
2023-04-14T02:16:39.050Z,2.20
2023-04-14T02:17:43.536Z,2.38
2023-04-14T02:18:49.417Z,2.67
2023-04-14T02:19:54.024Z,2.95
2023-04-14T02:20:59.229Z,3.03
2023-04-14T02:22:03.162Z,3.25
2023-04-14T02:23:06.144Z,2.65
2023-04-14T02:24:08.646Z,2.38
2023-04-14T02:25:11.127Z,2.83
2023-04-14T02:26:17.325Z,2.30
2023-04-14T02:27:28.696Z,2.70
2023-04-14T02:28:35.335Z,2.25
2023-04-14T02:29:42.176Z,2.78
2023-04-14T02:30:50.308Z,1.92
2023-04-14T02:32:02.432Z,2.40
2023-04-14T02:33:09.695Z,2.10
2023-04-14T02:34:14.304Z,2.20
2023-04-14T02:35:26.868Z,2.53
2023-04-14T02:36:39.302Z,2.10
2023-04-14T02:37:44.646Z,1.70
2023-04-14T02:38:52.279Z,2.53
2023-04-14T02:40:00.813Z,2.40
2023-04-14T02:41:08.515Z,2.00
2023-04-14T02:42:16.123Z,2.30
2023-04-14T02:43:26.488Z,2.10
2023-04-14T02:44:32.342Z,1.90
2023-04-14T02:45:39.068Z,3.08
2023-04-14T02:46:46.044Z,2.75
2023-04-14T02:47:53.492Z,3.20
2023-04-14T02:48:59.132Z,3.10
2023-04-14T02:50:04.236Z,2.78
2023-04-14T02:51:09.731Z,3.03
2023-04-14T02:52:15.499Z,3.10
2023-04-14T02:53:22.464Z,3.28
2023-04-14T02:54:28.322Z,3.95
2023-04-14T02:55:31.810Z,2.97
2023-04-14T02:56:35.635Z,3.25
2023-04-14T02:57:38.531Z,3.20
2023-04-14T02:58:41.917Z,2.67
2023-04-14T02:59:47.252Z,3.55
2023-04-14T03:00:51.988Z,3.50
2023-04-14T03:01:54.958Z,3.45
2023-04-14T03:02:59.745Z,3.63
2023-04-14T03:04:02.893Z,3.20
2023-04-14T03:05:08.959Z,2.83
2023-04-14T03:06:24.325Z,3.20
2023-04-14T03:07:28.172Z,3.28
2023-04-14T03:08:31.763Z,3.22
2023-04-14T03:09:34.926Z,3.13
2023-04-14T03:10:38.435Z,3.00
2023-04-14T03:11:43.139Z,3.88
2023-04-14T03:12:47.948Z,3.40
2023-04-14T03:13:54.662Z,2.75
2023-04-14T03:14:58.203Z,3.90
2023-04-14T03:16:01.123Z,3.50
2023-04-14T03:17:05.795Z,3.30
2023-04-14T03:18:09.063Z,3.92
2023-04-14T03:19:12.974Z,3.55
2023-04-14T03:20:21.827Z,4.30
2023-04-14T03:21:25.299Z,4.05
2023-04-14T03:22:28.673Z,3.78
2023-04-14T03:23:33.397Z,4.30
2023-04-14T03:24:41.983Z,4.38
2023-04-14T03:25:45.011Z,4.03
2023-04-14T03:26:58.481Z,3.75
2023-04-14T03:28:03.852Z,4.35
2023-04-14T03:29:07.578Z,3.40
2023-04-14T03:30:13.194Z,3.47
2023-04-14T03:31:19.071Z,3.55
2023-04-14T03:32:29.294Z,3.25
2023-04-14T03:33:32.419Z,3.42
2023-04-14T03:34:40.952Z,3.20
2023-04-14T03:35:46.701Z,3.25
2023-04-14T03:36:52.689Z,4.03
2023-04-14T03:37:59.872Z,4.15
2023-04-14T03:39:05.989Z,4.03
2023-04-14T03:40:15.551Z,4.40
2023-04-14T03:41:23.210Z,4.43
2023-04-14T03:42:29.113Z,4.28
2023-04-14T03:43:33.688Z,3.90
2023-04-14T03:44:49.979Z,3.95
2023-04-14T03:45:52.451Z,4.07
2023-04-14T03:46:55.904Z,4.18
2023-04-14T03:48:03.585Z,3.50
2023-04-14T03:49:15.248Z,4.53
2023-04-14T03:50:21.220Z,3.88
2023-04-14T03:51:27.644Z,3.85
2023-04-14T03:52:33.958Z,3.13
2023-04-14T03:53:40.776Z,3.47
2023-04-14T03:54:45.561Z,3.45
2023-04-14T03:55:51.540Z,3.90
2023-04-14T03:56:56.956Z,3.63
2023-04-14T03:58:03.252Z,3.33
2023-04-14T03:59:09.990Z,2.90
2023-04-14T04:00:15.299Z,3.22
2023-04-14T04:01:23.900Z,3.53
2023-04-14T04:02:27.407Z,4.78
2023-04-14T04:03:30.876Z,4.25
2023-04-14T04:04:35.736Z,3.60
2023-04-14T04:05:41.009Z,3.35
2023-04-14T04:06:43.440Z,3.50
2023-04-14T04:07:47.045Z,3.20
2023-04-14T04:08:50.864Z,3.33
2023-04-14T04:09:53.861Z,4.15
2023-04-14T04:10:57.584Z,4.25
2023-04-14T04:12:02.449Z,3.42
2023-04-14T04:13:17.264Z,4.18
2023-04-14T04:14:22.763Z,3.92
2023-04-14T04:15:29.066Z,3.80
2023-04-14T04:16:32.023Z,3.70
2023-04-14T04:17:35.493Z,4.20
2023-04-14T04:18:40.560Z,4.10
2023-04-14T04:19:44.816Z,3.70
2023-04-14T04:20:47.854Z,3.80
2023-04-14T04:21:53.395Z,3.50
2023-04-14T04:22:57.996Z,3.60
2023-04-14T04:24:01.968Z,3.70
2023-04-14T04:25:06.220Z,3.70
2023-04-14T04:26:11.081Z,4.15
2023-04-14T04:27:27.108Z,3.67
2023-04-14T04:28:34.278Z,3.85
2023-04-14T04:29:37.614Z,4.50
2023-04-14T04:30:42.125Z,4.38
2023-04-14T04:31:44.532Z,4.80
2023-04-14T04:32:47.459Z,4.80
2023-04-14T04:33:50.850Z,5.30
2023-04-14T04:34:54.372Z,5.30
2023-04-14T04:35:57.662Z,4.90
2023-04-14T04:37:07.107Z,11.55
2023-04-14T04:38:11.477Z,20.23
2023-04-14T04:39:17.254Z,32.70
2023-04-14T04:40:19.715Z,26.10
2023-04-14T04:41:28.992Z,26.52
2023-04-14T04:42:33.581Z,24.63
2023-04-14T04:43:35.797Z,20.15
2023-04-14T04:44:38.195Z,21.40
2023-04-14T04:45:57.742Z,20.27
2023-04-14T04:47:01.369Z,17.52
2023-04-14T04:48:04.463Z,18.00
2023-04-14T04:49:06.905Z,19.30
2023-04-14T04:50:09.371Z,23.23
2023-04-14T04:51:11.714Z,22.30
2023-04-14T04:52:15.355Z,19.98
2023-04-14T04:53:17.665Z,17.60
2023-04-14T04:54:20.275Z,16.35
2023-04-14T04:55:22.649Z,15.52
2023-04-14T04:56:26.235Z,13.65
2023-04-14T04:57:28.489Z,15.95
2023-04-14T04:58:30.778Z,14.30
2023-04-14T04:59:33.295Z,12.70
2023-04-14T05:00:35.759Z,12.68
2023-04-14T05:01:38.503Z,11.55
2023-04-14T05:02:40.960Z,11.45
2023-04-14T05:03:43.503Z,10.88
2023-04-14T05:04:45.853Z,10.20
2023-04-14T05:05:48.223Z,9.73
2023-04-14T05:06:50.474Z,8.50
2023-04-14T05:07:52.785Z,8.93
2023-04-14T05:08:55.812Z,8.75
2023-04-14T05:09:58.117Z,7.20
2023-04-14T05:11:01.142Z,7.90
2023-04-14T05:12:03.578Z,8.32
2023-04-14T05:13:05.786Z,7.60
2023-04-14T05:14:08.001Z,7.38
2023-04-14T05:15:11.025Z,8.18
2023-04-14T05:16:14.400Z,8.65
2023-04-14T05:17:16.701Z,7.70
2023-04-14T05:18:19.598Z,7.97
2023-04-14T05:19:21.884Z,8.05
2023-04-14T05:20:24.112Z,8.68
2023-04-14T05:21:26.678Z,6.95
2023-04-14T05:22:28.897Z,7.53
2023-04-14T05:23:33.267Z,8.30
2023-04-14T05:24:35.671Z,9.10
2023-04-14T05:25:37.918Z,8.30
2023-04-14T05:27:45.865Z,6.90
2023-04-14T05:28:48.192Z,6.93
2023-04-14T05:29:50.451Z,8.40
2023-04-14T05:30:52.764Z,6.85
2023-04-14T05:31:55.071Z,6.95
2023-04-14T05:32:57.604Z,8.95
2023-04-14T05:34:00.135Z,8.32
2023-04-14T05:35:02.676Z,8.32
2023-04-14T05:36:05.034Z,10.93
2023-04-14T05:37:07.464Z,8.93
2023-04-14T05:38:09.745Z,9.95
2023-04-14T05:39:12.058Z,9.10
2023-04-14T05:40:14.315Z,8.85
2023-04-14T05:41:16.560Z,9.05
2023-04-14T05:42:18.860Z,7.43
2023-04-14T05:43:21.157Z,6.93
2023-04-14T05:44:23.906Z,7.18
2023-04-14T05:45:26.475Z,7.28
2023-04-14T05:46:28.731Z,6.57
2023-04-14T05:47:31.584Z,6.32
2023-04-14T05:48:33.909Z,6.35
2023-04-14T05:49:36.234Z,7.00
2023-04-14T05:50:38.504Z,7.30
2023-04-14T05:51:40.832Z,8.07
2023-04-14T05:52:43.282Z,6.50
2023-04-14T05:53:45.568Z,7.60
2023-04-14T05:54:47.880Z,9.90
2023-04-14T05:55:51.961Z,7.93
2023-04-14T05:56:54.176Z,7.35
2023-04-14T05:57:56.627Z,7.65
2023-04-14T05:58:58.888Z,7.30
2023-04-14T06:00:01.157Z,6.85
2023-04-14T06:01:14.942Z,7.03
2023-04-14T06:02:17.227Z,6.18
2023-04-14T06:03:19.735Z,6.57
2023-04-14T06:04:22.295Z,5.57
2023-04-14T06:05:25.218Z,5.60
2023-04-14T06:06:28.125Z,5.32
2023-04-14T06:07:30.586Z,5.90
2023-04-14T06:08:32.911Z,6.35
2023-04-14T06:09:35.345Z,5.88
2023-04-14T06:10:37.738Z,5.63
2023-04-14T06:11:40.421Z,5.43
2023-04-14T06:12:42.778Z,5.50
2023-04-14T06:13:45.054Z,5.93
2023-04-14T06:14:47.642Z,5.20
2023-04-14T06:15:51.105Z,5.53
2023-04-14T06:16:54.657Z,4.80
2023-04-14T06:17:58.992Z,5.10
2023-04-14T06:19:01.591Z,5.18
2023-04-14T06:20:04.356Z,4.30
2023-04-14T06:21:06.798Z,4.63
2023-04-14T06:22:09.193Z,4.85
2023-04-14T06:23:11.653Z,3.85
2023-04-14T06:24:14.051Z,4.10
2023-04-14T06:25:16.488Z,4.30
2023-04-14T06:26:18.839Z,3.78
2023-04-14T06:27:21.172Z,3.88
2023-04-14T06:28:26.392Z,4.57
2023-04-14T06:29:28.814Z,4.05
2023-04-14T06:30:34.041Z,3.78
2023-04-14T06:31:36.540Z,3.50
2023-04-14T06:32:38.972Z,3.95
2023-04-14T06:33:41.882Z,3.83
2023-04-14T06:34:44.246Z,3.90
2023-04-14T06:35:46.992Z,3.45
2023-04-14T06:36:49.279Z,3.17
2023-04-14T06:37:51.720Z,3.30
2023-04-14T06:38:54.132Z,3.30
2023-04-14T06:39:56.376Z,3.25
2023-04-14T06:40:58.653Z,2.72
2023-04-14T06:42:00.961Z,3.20
2023-04-14T06:43:07.692Z,3.40
2023-04-14T06:44:10.023Z,3.97
2023-04-14T06:45:12.383Z,4.13
2023-04-14T06:46:14.724Z,4.60
2023-04-14T06:47:21.854Z,4.35
2023-04-14T06:48:24.353Z,4.45
2023-04-14T06:49:26.644Z,4.70
2023-04-14T06:50:28.922Z,5.05
2023-04-14T06:51:34.767Z,3.72
2023-04-14T06:52:37.008Z,4.20
2023-04-14T06:53:39.480Z,5.10
2023-04-14T06:54:42.399Z,4.85
2023-04-14T06:55:44.740Z,4.28
2023-04-14T06:56:47.128Z,4.95
2023-04-14T06:57:49.428Z,4.60
2023-04-14T06:58:51.738Z,4.60
2023-04-14T06:59:53.996Z,4.20
2023-04-14T07:00:57.612Z,4.57
2023-04-14T07:02:00.974Z,3.88
2023-04-14T07:03:03.663Z,4.25
2023-04-14T07:04:07.983Z,4.00
2023-04-14T07:05:10.599Z,4.55
2023-04-14T07:06:17.149Z,4.70
2023-04-14T07:07:19.660Z,4.50
2023-04-14T07:08:22.168Z,4.88
2023-04-14T07:09:24.724Z,4.22
2023-04-14T07:10:27.128Z,4.10
2023-04-14T07:11:30.321Z,4.10
2023-04-14T07:12:34.023Z,5.28
2023-04-14T07:13:37.387Z,5.30
2023-04-14T07:14:40.250Z,6.05
2023-04-14T07:15:47.685Z,4.97
2023-04-14T07:16:51.712Z,4.68
2023-04-14T07:17:54.371Z,4.93
2023-04-14T07:18:56.697Z,6.05
2023-04-14T07:19:59.149Z,4.72
2023-04-14T07:21:02.209Z,5.10
2023-04-14T07:22:04.439Z,4.97
2023-04-14T07:23:06.698Z,4.53
2023-04-14T07:24:09.553Z,4.90
2023-04-14T07:25:11.972Z,11.48
2023-04-14T07:26:14.301Z,8.35
2023-04-14T07:27:16.582Z,9.63
2023-04-14T07:28:19.804Z,19.25
2023-04-14T07:29:22.100Z,16.63
2023-04-14T07:30:24.338Z,26.13
2023-04-14T07:31:26.764Z,21.95
2023-04-14T07:32:29.254Z,19.40
2023-04-14T07:33:31.527Z,19.77
2023-04-14T07:34:33.885Z,18.17
2023-04-14T07:35:36.380Z,15.63
2023-04-14T07:36:38.755Z,13.38
2023-04-14T07:37:42.415Z,17.60
2023-04-14T07:38:44.773Z,15.40
2023-04-14T07:39:47.663Z,15.32
2023-04-14T07:40:49.968Z,13.55
2023-04-14T07:41:52.416Z,12.75
2023-04-14T07:42:54.766Z,13.40
2023-04-14T07:43:59.559Z,10.50
2023-04-14T07:45:03.284Z,11.77
2023-04-14T07:46:07.563Z,9.98
2023-04-14T07:47:10.045Z,9.30
2023-04-14T07:48:12.483Z,9.35
2023-04-14T07:49:14.759Z,7.93
2023-04-14T07:50:19.639Z,7.80
2023-04-14T07:51:22.406Z,7.03
2023-04-14T07:52:24.984Z,6.88
2023-04-14T07:53:27.429Z,6.63
2023-04-14T07:54:31.369Z,6.43
2023-04-14T07:55:33.681Z,7.15
2023-04-14T07:56:35.963Z,6.88
2023-04-14T07:57:38.373Z,6.10
2023-04-14T07:58:41.681Z,5.32
2023-04-14T07:59:43.922Z,6.18
2023-04-14T08:00:46.268Z,7.32
2023-04-14T08:01:48.667Z,6.13
2023-04-14T08:02:51.195Z,7.10
2023-04-14T08:03:53.942Z,6.00
2023-04-14T08:04:56.632Z,6.75
2023-04-14T08:05:59.264Z,6.40
2023-04-14T08:07:01.653Z,7.63
2023-04-14T08:08:04.070Z,6.78
2023-04-14T08:09:06.418Z,6.65
2023-04-14T08:10:08.783Z,6.50
2023-04-14T08:11:11.020Z,5.90
2023-04-14T08:12:13.328Z,7.95
2023-04-14T08:13:15.956Z,7.05
2023-04-14T08:14:18.321Z,6.47
2023-04-14T08:15:20.731Z,8.05
2023-04-14T08:16:23.145Z,6.65
2023-04-14T08:17:25.623Z,7.78
2023-04-14T08:18:28.423Z,6.90
2023-04-14T08:19:31.556Z,6.53
2023-04-14T08:20:33.910Z,5.93
2023-04-14T08:21:36.347Z,6.57
2023-04-14T08:22:38.757Z,7.18
2023-04-14T08:23:41.253Z,7.00
2023-04-14T08:24:43.486Z,7.00
2023-04-14T08:25:45.794Z,7.25
2023-04-14T08:26:48.353Z,6.95
2023-04-14T08:27:51.067Z,6.55
2023-04-14T08:28:54.161Z,6.82
2023-04-14T08:29:56.408Z,6.75
2023-04-14T08:30:58.887Z,6.55
2023-04-14T08:32:01.294Z,8.00
2023-04-14T08:33:04.083Z,6.55
2023-04-14T08:34:06.477Z,7.10
2023-04-14T08:35:39.149Z,8.10
2023-04-14T08:36:31.908Z,6.45
2023-04-14T08:37:34.328Z,7.53
2023-04-14T08:38:36.632Z,7.72
2023-04-14T08:39:38.900Z,7.20
2023-04-14T08:40:42.761Z,6.82
2023-04-14T08:41:45.442Z,7.78
2023-04-14T08:42:47.675Z,7.38
2023-04-14T08:43:50.356Z,7.70
2023-04-14T08:44:53.505Z,6.70
2023-04-14T08:45:58.099Z,6.63
2023-04-14T08:47:00.625Z,8.23
2023-04-14T08:48:04.384Z,7.55
2023-04-14T08:49:08.248Z,6.93
2023-04-14T08:50:15.440Z,7.43
2023-04-14T08:51:32.579Z,8.13
2023-04-14T08:52:36.822Z,6.40
2023-04-14T08:53:45.580Z,7.80
2023-04-14T08:54:51.188Z,6.82
2023-04-14T08:55:56.810Z,6.82
2023-04-14T08:57:02.585Z,7.13
2023-04-14T08:58:07.508Z,6.18
2023-04-14T08:59:11.388Z,7.10
2023-04-14T09:00:14.451Z,6.65
2023-04-14T09:01:17.621Z,7.43
2023-04-14T09:02:20.515Z,5.57
2023-04-14T09:03:24.323Z,7.05
2023-04-14T09:04:28.684Z,6.00
2023-04-14T09:05:31.150Z,6.07
2023-04-14T09:06:34.774Z,7.25
2023-04-14T09:07:37.097Z,6.07
2023-04-14T09:08:39.759Z,5.30
2023-04-14T09:09:43.506Z,6.10
2023-04-14T09:10:46.752Z,5.95
2023-04-14T09:11:49.844Z,4.40
2023-04-14T09:12:53.669Z,4.10
2023-04-14T09:13:58.518Z,4.70
2023-04-14T09:15:02.165Z,4.07
2023-04-14T09:16:04.702Z,3.92
2023-04-14T09:17:07.949Z,3.70
2023-04-14T09:18:11.643Z,3.60
2023-04-14T09:19:14.672Z,4.80
2023-04-14T09:20:36.484Z,4.30
2023-04-14T09:21:52.036Z,4.95
2023-04-14T09:22:56.545Z,4.32
2023-04-14T09:23:59.180Z,4.32
2023-04-14T09:25:03.049Z,3.58
2023-04-14T09:26:09.454Z,3.97
2023-04-14T09:27:11.722Z,5.40
2023-04-14T09:28:14.331Z,4.80
2023-04-14T09:29:17.033Z,4.72
2023-04-14T09:30:20.053Z,4.07
2023-04-14T09:31:22.553Z,4.05
2023-04-14T09:32:25.807Z,4.03
2023-04-14T09:33:28.702Z,4.00
2023-04-14T09:34:31.228Z,3.45
2023-04-14T09:35:52.502Z,3.35
2023-04-14T09:37:08.348Z,3.53
2023-04-14T09:38:10.949Z,3.63
2023-04-14T09:39:17.874Z,3.78
2023-04-14T09:40:31.126Z,5.60
2023-04-14T09:41:33.800Z,4.00
2023-04-14T09:42:40.810Z,3.67
2023-04-14T09:43:43.437Z,3.40
2023-04-14T09:44:59.028Z,3.95
2023-04-14T09:46:08.372Z,3.47
2023-04-14T09:47:10.656Z,3.35
2023-04-14T09:48:13.292Z,3.45
2023-04-14T09:49:15.668Z,3.65
2023-04-14T09:50:18.084Z,4.10
2023-04-14T09:51:28.755Z,3.58
2023-04-14T09:52:38.719Z,3.95
2023-04-14T09:53:41.244Z,3.88
2023-04-14T09:54:43.914Z,3.95
2023-04-14T09:55:50.937Z,3.75
2023-04-14T09:56:54.421Z,4.93
2023-04-14T09:57:56.843Z,3.90
2023-04-14T09:59:02.088Z,3.63
2023-04-14T10:00:20.961Z,5.28
2023-04-14T10:01:33.695Z,4.00
2023-04-14T10:02:51.935Z,3.42
2023-04-14T10:03:54.381Z,3.50
2023-04-14T10:05:07.083Z,3.60
2023-04-14T10:06:15.680Z,3.80
2023-04-14T10:07:19.841Z,4.13
2023-04-14T10:08:22.201Z,4.50
2023-04-14T10:09:28.976Z,4.45
2023-04-14T10:10:31.779Z,4.43
2023-04-14T10:11:35.203Z,3.65
2023-04-14T10:12:37.664Z,5.00
2023-04-14T10:13:40.076Z,4.35
2023-04-14T10:14:44.241Z,3.80
2023-04-14T10:15:46.717Z,4.30
2023-04-14T10:16:49.126Z,4.35
2023-04-14T10:17:51.703Z,4.78
2023-04-14T10:18:54.927Z,4.47
2023-04-14T10:19:57.319Z,4.68
2023-04-14T10:21:01.551Z,4.50
2023-04-14T10:22:06.011Z,4.93
2023-04-14T10:23:08.906Z,4.60
2023-04-14T10:24:12.886Z,4.72
2023-04-14T10:25:15.821Z,4.60
2023-04-14T10:26:19.509Z,4.93
2023-04-14T10:27:22.320Z,5.43
2023-04-14T10:28:26.281Z,4.15
2023-04-14T10:29:30.871Z,4.35
2023-04-14T10:30:33.521Z,4.90
2023-04-14T10:31:42.865Z,5.40
2023-04-14T10:32:47.318Z,4.97
2023-04-14T10:33:49.936Z,5.00
2023-04-14T10:35:15.526Z,5.25
2023-04-14T10:36:27.973Z,4.50
2023-04-14T10:37:30.685Z,5.15
2023-04-14T10:38:44.639Z,5.45
2023-04-14T10:39:58.650Z,5.13
2023-04-14T10:41:00.942Z,5.20
2023-04-14T10:42:03.522Z,4.57
2023-04-14T10:43:12.591Z,4.22
2023-04-14T10:44:31.557Z,4.78
2023-04-14T10:45:33.878Z,5.28
2023-04-14T10:46:46.575Z,4.07
2023-04-14T10:47:50.262Z,7.50
2023-04-14T10:48:52.618Z,6.57
2023-04-14T10:49:58.294Z,17.90
2023-04-14T10:51:04.422Z,11.60
2023-04-14T10:52:29.261Z,9.75
2023-04-14T10:53:46.582Z,7.10
2023-04-14T10:54:48.862Z,6.00
2023-04-14T10:55:53.745Z,5.15
2023-04-14T10:57:10.174Z,4.07
2023-04-14T10:58:23.086Z,4.80
2023-04-14T10:59:28.272Z,6.15
2023-04-14T11:00:33.870Z,5.85
2023-04-14T11:01:37.975Z,5.90
2023-04-14T11:03:04.124Z,5.10
2023-04-14T11:04:23.609Z,4.85
2023-04-14T11:05:26.557Z,5.60
2023-04-14T11:06:47.007Z,4.38
2023-04-14T11:07:54.474Z,5.20
2023-04-14T11:08:57.418Z,4.70
2023-04-14T11:10:20.564Z,4.63
2023-04-14T11:11:28.497Z,5.05
2023-04-14T11:12:31.485Z,4.40
2023-04-14T11:13:34.875Z,4.93
2023-04-14T11:14:37.291Z,4.05
2023-04-14T11:16:10.827Z,4.80
2023-04-14T11:17:20.187Z,5.28
2023-04-14T11:18:28.953Z,4.65
2023-04-14T11:19:32.359Z,4.68
2023-04-14T11:20:39.747Z,4.65
2023-04-14T11:21:53.630Z,4.32
2023-04-14T11:22:59.854Z,5.63
2023-04-14T11:24:02.094Z,4.72
2023-04-14T11:25:04.873Z,4.43
2023-04-14T11:26:12.254Z,4.80
2023-04-14T11:27:14.912Z,5.45
2023-04-14T11:28:36.970Z,5.38
2023-04-14T11:29:39.286Z,4.80
2023-04-14T11:30:42.072Z,5.00
2023-04-14T11:31:44.721Z,5.20
2023-04-14T11:32:54.025Z,4.55
2023-04-14T11:33:56.805Z,4.63
2023-04-14T11:35:08.101Z,5.30
2023-04-14T11:36:12.708Z,5.70
2023-04-14T11:37:15.069Z,5.45
2023-04-14T11:38:17.475Z,5.55
2023-04-14T11:39:20.667Z,5.85
2023-04-14T11:40:26.612Z,4.80
2023-04-14T11:41:29.992Z,4.57
2023-04-14T11:42:33.835Z,4.18
2023-04-14T11:43:38.258Z,5.30
2023-04-14T11:44:40.655Z,4.90
2023-04-14T11:45:43.929Z,4.97
2023-04-14T11:46:46.741Z,5.22
2023-04-14T11:48:00.116Z,5.07
2023-04-14T11:49:04.640Z,4.10
2023-04-14T11:50:07.986Z,4.20
2023-04-14T11:51:10.618Z,4.22
2023-04-14T11:52:12.928Z,4.68
2023-04-14T11:53:17.554Z,4.22
2023-04-14T11:54:19.924Z,4.18
2023-04-14T11:55:25.424Z,4.53
2023-04-14T11:56:28.648Z,4.60
2023-04-14T11:57:31.017Z,4.00
2023-04-14T11:58:33.913Z,4.40
2023-04-14T11:59:42.562Z,4.10
2023-04-14T12:00:44.912Z,4.72
2023-04-14T12:01:51.425Z,5.03
2023-04-14T12:02:54.065Z,4.00
2023-04-14T12:03:57.779Z,3.85
2023-04-14T12:05:00.424Z,3.85
2023-04-14T12:06:03.495Z,4.32
2023-04-14T12:07:17.227Z,4.20
2023-04-14T12:08:23.984Z,4.38
2023-04-14T12:09:31.269Z,3.35
2023-04-14T12:10:33.768Z,3.35
2023-04-14T12:11:36.302Z,4.38
2023-04-14T12:12:38.608Z,4.30
2023-04-14T12:13:42.330Z,4.60
2023-04-14T12:14:50.892Z,4.50
2023-04-14T12:15:54.414Z,4.15
2023-04-14T12:16:57.132Z,3.70
2023-04-14T12:18:00.503Z,3.85
2023-04-14T12:19:03.875Z,4.75
2023-04-14T12:20:13.563Z,5.38
2023-04-14T12:21:19.687Z,4.35
2023-04-14T12:22:27.142Z,4.22
2023-04-14T12:23:29.564Z,4.20
2023-04-14T12:24:40.284Z,3.60
2023-04-14T12:25:42.730Z,3.42
2023-04-14T12:26:45.093Z,4.00
2023-04-14T12:27:56.508Z,3.80
2023-04-14T12:28:59.795Z,4.32
2023-04-14T12:30:02.624Z,3.97
2023-04-14T12:31:05.185Z,4.03
2023-04-14T12:32:11.671Z,3.78
2023-04-14T12:33:14.009Z,4.22
2023-04-14T12:34:18.316Z,4.63
2023-04-14T12:35:24.216Z,3.78
2023-04-14T12:36:40.662Z,4.00
2023-04-14T12:37:50.137Z,4.25
2023-04-14T12:38:52.471Z,3.67
2023-04-14T12:40:00.389Z,3.83
2023-04-14T12:41:02.892Z,3.67
2023-04-14T12:42:05.248Z,3.55
2023-04-14T12:43:07.923Z,3.30
2023-04-14T12:44:20.679Z,4.90
2023-04-14T12:45:23.048Z,3.15
2023-04-14T12:46:26.612Z,3.72
2023-04-14T12:47:31.014Z,3.08
2023-04-14T12:48:58.689Z,3.88
2023-04-14T12:50:29.445Z,2.85
2023-04-14T12:51:39.812Z,2.78
2023-04-14T12:52:43.125Z,2.45
2023-04-14T12:53:47.649Z,3.60
2023-04-14T12:54:54.146Z,2.90
2023-04-14T12:56:16.496Z,3.05
2023-04-14T12:57:22.307Z,2.90
2023-04-14T12:58:29.136Z,3.00
2023-04-14T12:59:31.777Z,3.10
2023-04-14T13:00:34.055Z,3.60
2023-04-14T13:01:36.472Z,3.88
2023-04-14T13:02:38.905Z,3.58
2023-04-14T13:03:42.228Z,3.33
2023-04-14T13:04:45.283Z,3.60
2023-04-14T13:05:47.588Z,3.47
2023-04-14T13:06:49.838Z,3.88
2023-04-14T13:07:52.105Z,3.38
2023-04-14T13:08:56.482Z,3.25
2023-04-14T13:09:58.837Z,3.10
2023-04-14T13:11:02.677Z,3.60
2023-04-14T13:12:05.056Z,3.10
2023-04-14T13:13:07.343Z,3.47
2023-04-14T13:14:09.664Z,3.35
2023-04-14T13:16:20.412Z,3.35
2023-04-14T13:16:36.027Z,3.33
2023-04-14T13:17:38.412Z,4.35
2023-04-14T13:18:41.171Z,4.25
2023-04-14T13:19:43.489Z,3.97
2023-04-14T13:20:54.385Z,3.47
2023-04-14T13:21:56.697Z,3.70
2023-04-14T13:22:58.977Z,3.47
2023-04-14T13:24:01.299Z,3.53
2023-04-14T13:25:04.355Z,4.75
2023-04-14T13:26:06.754Z,4.10
2023-04-14T13:27:09.115Z,3.53
2023-04-14T13:28:11.454Z,3.90
2023-04-14T13:29:14.058Z,4.72
2023-04-14T13:30:16.416Z,3.70
2023-04-14T13:31:18.727Z,3.40
2023-04-14T13:32:21.089Z,4.07
2023-04-14T13:33:25.588Z,3.75
2023-04-14T13:34:28.347Z,3.65
2023-04-14T13:35:30.749Z,3.80
2023-04-14T13:36:33.072Z,3.65
2023-04-14T13:37:35.329Z,4.43
2023-04-14T13:38:37.720Z,3.72
2023-04-14T13:39:40.202Z,3.63
2023-04-14T13:40:42.527Z,4.03
2023-04-14T13:41:44.818Z,4.82
2023-04-14T13:42:47.105Z,4.32
2023-04-14T13:43:49.393Z,4.82
2023-04-14T13:44:51.650Z,5.32
2023-04-14T13:45:58.336Z,4.75
2023-04-14T13:47:00.670Z,4.30
2023-04-14T13:48:03.131Z,4.07
2023-04-14T13:49:05.449Z,4.30
2023-04-14T13:50:08.195Z,4.40
2023-04-14T13:51:10.651Z,5.05
2023-04-14T13:52:12.912Z,4.30
2023-04-14T13:53:15.323Z,4.25
2023-04-14T13:54:17.563Z,4.40
2023-04-14T13:55:21.087Z,4.20
2023-04-14T13:56:25.668Z,4.72
2023-04-14T13:57:27.980Z,4.25
2023-04-14T13:58:30.342Z,4.60
2023-04-14T13:59:33.157Z,4.55
2023-04-14T14:00:35.614Z,5.60
2023-04-14T14:01:37.909Z,4.57
2023-04-14T14:02:40.577Z,5.22
2023-04-14T14:03:43.286Z,4.95
2023-04-14T14:04:45.771Z,5.20
2023-04-14T14:05:48.268Z,4.65
2023-04-14T14:06:50.760Z,4.85
2023-04-14T14:07:53.281Z,5.03
2023-04-14T14:09:06.363Z,5.05
2023-04-14T14:10:10.779Z,4.85
2023-04-14T14:11:14.088Z,4.90
2023-04-14T14:12:19.668Z,4.93
2023-04-14T14:13:22.328Z,3.95
2023-04-14T14:14:24.604Z,4.70
2023-04-14T14:15:27.066Z,4.03
2023-04-14T14:16:36.729Z,4.32
2023-04-14T14:17:40.804Z,4.40
2023-04-14T14:18:43.379Z,4.78
2023-04-14T14:19:46.086Z,4.10
2023-04-14T14:20:49.146Z,4.10
2023-04-14T14:21:51.482Z,4.78
2023-04-14T14:22:53.930Z,4.28
2023-04-14T14:23:56.242Z,3.70